Accueil
METAR-TAF:

METAR-TAF

Aéroports :

Bauru, São Paulo, Brésil

latitude: 22-19S, longitude: 049-04W, altitude: 590 m

Observation

Le bulletin a été fait il y a 3 heures et 25 minutes, à 19:00 UTC
Vent 4 kt de nord
Température 28°C
Humidité 66%
Pression 1014 hPa
Visibilité 10 km ou plus
Quelques nuages à une hauteur de 4000 ft
Quelques nuages à une hauteur de 4500 ft, Cumulus congestus.
averses à proximité

METAR: SBBU 221900Z 01004KT 9999 VCSH FEW040 FEW045TCU 28/21 Q1014

Heure: 20:25 (22:25 UTC)

Prévision

Le bulletin a été fait il y a 7 heures et 25 minutes, à 15:00 UTC
Prévision valable du 22 à 18 UTC au 23 à 06 UTC
Vent 5 kt de est
Visibilité 10 km ou plus
Nuages épars à une hauteur de 3000 ft

TAF: SBBU 221500Z 2218/2306 09005KT 9999 SCT030 TX29/2218Z TN22/2305Z RMK PER

Observations et prévisions météorologiques de plus de 4000 aéroports (messages METAR et TAF).

Les stations disponibles sont représentées par des disques jaunes et rouges sur la carte.

Passer la souris dessus pour voir le nom de la station.

Cliquer dessus pour voir les observations et prévisions météorologiques.

Pour changer de carte: cliquez sur les boutons verts avec une croix noire pour zoomer, sur le bouton vert avec un tiret pour effectuer un zoom arrière, ou sur les flèches vertes pour les cartes adjacentes.


METAR-TAF: